Time;durP1;ratioP1;P1;durP2;ratioP2;P2;SDS_P1;SDS_P2;PMS_P1;PMS_P2;Temp;Humidity;BMP_temperature;BMP_pressure;BME280_temperature;BME280_humidity;BME280_pressure;Samples;Min_cycle;Max_cycle;Signal;HPM_P1;HPM_P2
2021/03/26 00:02:31;;;;;;;7.34;4.93;;;;;;;5.32;79.08;99865.19;2020706;80;20335;-68
2021/03/26 00:05:35;;;;;;;6.72;4.05;;;;;;;5.27;78.93;99859.06;2021778;80;20304;-68
2021/03/26 00:08:37;;;;;;;8.30;4.19;;;;;;;5.29;78.83;99859.97;2022065;80;20304;-68
2021/03/26 00:11:38;;;;;;;5.94;4.00;;;;;;;5.28;78.67;99847.91;2021809;80;20319;-68
2021/03/26 00:14:41;;;;;;;6.75;3.97;;;;;;;5.27;78.54;99853.03;2021225;80;20367;-68
2021/03/26 00:17:43;;;;;;;6.29;3.90;;;;;;;5.25;78.64;99847.84;2021882;80;20798;-69
2021/03/26 00:20:45;;;;;;;6.54;3.56;;;;;;;5.18;78.52;99840.78;2021609;80;20307;-68
2021/03/26 00:23:47;;;;;;;6.60;3.33;;;;;;;5.14;78.40;99845.00;2021503;80;20426;-68
2021/03/26 00:26:48;;;;;;;5.95;3.65;;;;;;;5.12;78.17;99841.53;2022102;80;20320;-68
2021/03/26 00:29:52;;;;;;;7.10;4.03;;;;;;;5.08;78.31;99844.00;2022284;80;20453;-68
2021/03/26 00:32:54;;;;;;;7.15;4.19;;;;;;;5.05;78.46;99839.66;2068262;69;20347;-76
2021/03/26 00:35:56;;;;;;;8.26;4.01;;;;;;;5.01;78.54;99835.22;2016431;80;21209;-76
2021/03/26 00:38:58;;;;;;;5.81;3.58;;;;;;;4.99;78.53;99834.31;2016689;80;20813;-76
2021/03/26 00:41:59;;;;;;;8.63;5.45;;;;;;;4.98;78.65;99836.88;2016824;80;20313;-76
2021/03/26 00:45:03;;;;;;;8.60;4.99;;;;;;;4.97;78.68;99830.84;2015831;80;20325;-76
2021/03/26 00:48:06;;;;;;;6.29;4.28;;;;;;;4.95;78.92;99831.66;2016712;80;20359;-75
2021/03/26 00:51:08;;;;;;;6.05;4.59;;;;;;;4.94;78.80;99833.34;2016863;80;20349;-76
2021/03/26 00:54:11;;;;;;;8.01;5.10;;;;;;;4.93;78.78;99823.03;2016995;80;20761;-76
2021/03/26 00:57:13;;;;;;;7.50;4.95;;;;;;;4.90;78.96;99816.09;2015666;80;20352;-75
2021/03/26 01:00:22;;;;;;;6.84;5.41;;;;;;;4.85;79.29;99826.28;2015677;80;20337;-75
2021/03/26 01:03:27;;;;;;;8.18;5.69;;;;;;;4.88;79.40;99827.19;2016548;80;20449;-75
2021/03/26 01:06:29;;;;;;;6.56;5.19;;;;;;;4.91;79.35;99827.25;2016387;80;21047;-75
2021/03/26 01:09:32;;;;;;;7.34;5.44;;;;;;;4.93;79.73;99825.59;2016172;80;20344;-75
2021/03/26 01:12:33;;;;;;;11.21;6.09;;;;;;;4.93;79.78;99826.47;2016452;80;20331;-75
2021/03/26 01:15:35;;;;;;;7.38;5.36;;;;;;;4.93;79.77;99823.91;2017106;80;20301;-75
2021/03/26 01:18:43;;;;;;;10.26;5.19;;;;;;;4.93;80.06;99816.19;2016274;80;21286;-76
2021/03/26 01:21:45;;;;;;;5.36;4.70;;;;;;;4.89;80.27;99821.22;2016191;80;20786;-75
2021/03/26 01:24:46;;;;;;;7.79;4.59;;;;;;;4.91;80.46;99823.00;2015547;80;21168;-75
2021/03/26 01:27:48;;;;;;;9.79;4.68;;;;;;;4.89;80.82;99818.63;2016284;80;20408;-75
2021/03/26 01:30:50;;;;;;;6.91;4.47;;;;;;;4.85;81.00;99813.41;2016371;80;20498;-75
2021/03/26 01:33:52;;;;;;;5.94;3.86;;;;;;;4.84;80.97;99816.78;2018272;80;20896;-75
2021/03/26 01:36:54;;;;;;;8.25;3.99;;;;;;;4.84;80.71;99813.34;2020987;80;20308;-75
2021/03/26 01:39:56;;;;;;;9.39;4.39;;;;;;;4.83;80.46;99807.34;2021657;80;20326;-75
2021/03/26 01:43:07;;;;;;;7.07;5.03;;;;;;;4.84;80.35;99809.09;2022939;80;20445;-75
2021/03/26 01:46:12;;;;;;;8.84;4.91;;;;;;;4.83;80.16;99804.75;2020880;80;20660;-74
2021/03/26 01:49:15;;;;;;;4.69;4.05;;;;;;;4.82;80.66;99799.59;2018708;80;20426;-75
2021/03/26 01:52:16;;;;;;;7.49;4.19;;;;;;;4.77;81.03;99796.03;2019042;80;20880;-75
2021/03/26 01:55:24;;;;;;;5.99;4.18;;;;;;;4.74;81.29;99795.97;2019539;80;21387;-75
2021/03/26 01:58:30;;;;;;;6.57;3.63;;;;;;;4.69;81.44;99795.84;2019666;80;20300;-75
2021/03/26 02:01:41;;;;;;;6.47;3.30;;;;;;;4.66;81.02;99795.75;2019412;80;20351;-75
2021/03/26 02:04:46;;;;;;;4.96;3.64;;;;;;;4.60;80.90;99790.47;2019828;80;20335;-75
2021/03/26 02:07:48;;;;;;;5.40;3.63;;;;;;;4.53;80.72;99788.56;2020463;80;20300;-75
2021/03/26 02:10:49;;;;;;;5.65;3.84;;;;;;;4.46;80.54;99789.22;2021057;80;20324;-74
2021/03/26 02:13:51;;;;;;;5.69;4.01;;;;;;;4.39;80.48;99790.78;2020996;80;20340;-76
2021/03/26 02:16:53;;;;;;;5.38;3.71;;;;;;;4.32;80.34;99788.88;2020792;80;20328;-75
2021/03/26 02:20:27;;;;;;;4.66;3.49;;;;;;;4.28;80.09;99783.59;2022183;80;20438;-75
2021/03/26 02:23:29;;;;;;;6.01;3.75;;;;;;;4.23;79.81;99784.34;2021654;80;20320;-76
2021/03/26 02:26:38;;;;;;;7.70;4.07;;;;;;;4.16;80.06;99773.88;2021544;80;20366;-76
2021/03/26 02:29:41;;;;;;;5.26;3.78;;;;;;;4.09;80.32;99779.66;2021433;80;20393;-76
2021/03/26 02:32:43;;;;;;;5.18;3.94;;;;;;;4.03;80.09;99774.34;2021123;80;20323;-76
2021/03/26 02:35:56;;;;;;;6.13;4.29;;;;;;;3.96;79.98;99769.91;2021137;80;20958;-76
2021/03/26 02:38:59;;;;;;;6.85;4.06;;;;;;;3.92;80.18;99780.06;2021238;80;20334;-76
2021/03/26 02:42:04;;;;;;;8.20;4.30;;;;;;;3.84;80.05;99768.72;2021219;80;20345;-75
2021/03/26 02:45:13;;;;;;;5.22;4.50;;;;;;;3.77;79.93;99774.50;2020588;80;20353;-75
2021/03/26 02:48:31;;;;;;;7.29;5.77;;;;;;;3.72;79.93;99772.63;2021513;80;20312;-75
2021/03/26 02:51:39;;;;;;;7.88;5.65;;;;;;;3.67;80.06;99769.06;2021258;80;20632;-75
2021/03/26 02:54:51;;;;;;;7.17;5.71;;;;;;;3.62;80.17;99768.91;2021780;80;20323;-75
2021/03/26 02:57:58;;;;;;;9.35;6.16;;;;;;;3.58;80.18;99764.50;2021557;80;20450;-76
2021/03/26 03:01:08;;;;;;;11.11;5.96;;;;;;;3.54;80.29;99758.41;2020962;80;20713;-77
2021/03/26 03:04:23;;;;;;;9.23;6.07;;;;;;;3.51;80.44;99763.47;2023559;80;20333;-76
2021/03/26 03:07:32;;;;;;;10.00;6.01;;;;;;;3.50;80.81;99754.03;2023709;80;20966;-75
2021/03/26 03:10:42;;;;;;;8.59;5.59;;;;;;;3.52;80.93;99754.94;2024156;80;20363;-75
2021/03/26 03:13:53;;;;;;;8.20;6.18;;;;;;;3.56;81.11;99755.88;2022984;80;20338;-75
2021/03/26 03:17:05;;;;;;;9.14;5.94;;;;;;;3.58;81.30;99754.22;2023738;80;20331;-75
2021/03/26 03:20:18;;;;;;;12.94;6.09;;;;;;;3.65;81.52;99748.47;2023499;80;20308;-75
2021/03/26 03:23:28;;;;;;;9.85;6.01;;;;;;;3.66;81.93;99750.22;2023416;80;20319;-75
2021/03/26 03:26:40;;;;;;;6.84;5.96;;;;;;;3.71;81.89;99745.19;2023509;80;20336;-75
2021/03/26 03:30:03;;;;;;;12.63;6.78;;;;;;;3.71;81.96;99746.06;2023185;80;21217;-75
2021/03/26 03:33:31;;;;;;;9.70;6.07;;;;;;;3.74;82.04;99742.72;2023849;80;20941;-75
2021/03/26 03:36:44;;;;;;;9.35;6.64;;;;;;;3.78;82.11;99744.56;2023122;80;20462;-75
2021/03/26 03:40:08;;;;;;;9.56;6.78;;;;;;;3.82;82.27;99738.69;2023482;80;20299;-75
2021/03/26 03:43:41;;;;;;;8.39;6.26;;;;;;;3.86;82.35;99748.19;2023045;80;20741;-74
2021/03/26 03:46:47;;;;;;;11.19;6.40;;;;;;;3.89;81.97;99745.72;2022490;80;20365;-75
2021/03/26 03:50:01;;;;;;;9.15;6.97;;;;;;;3.88;82.18;99749.09;2023646;80;20308;-75
2021/03/26 03:53:07;;;;;;;9.57;6.13;;;;;;;3.86;82.34;99741.38;2023693;80;20880;-75
2021/03/26 03:56:20;;;;;;;7.70;6.61;;;;;;;3.83;82.54;99733.56;2026203;80;20355;-76
2021/03/26 03:59:44;;;;;;;13.36;6.97;;;;;;;3.81;82.52;99731.81;2023672;80;20330;-75
2021/03/26 04:03:08;;;;;;;10.36;6.78;;;;;;;3.78;82.48;99732.59;2022853;80;20748;-75
2021/03/26 04:06:21;;;;;;;10.18;6.38;;;;;;;3.77;82.41;99729.94;2022907;80;20795;-76
2021/03/26 04:09:31;;;;;;;9.41;6.05;;;;;;;3.72;82.50;99732.41;2022414;80;21461;-75
2021/03/26 04:12:37;;;;;;;8.55;6.47;;;;;;;3.69;82.64;99732.31;2021646;80;20937;-75
2021/03/26 04:15:53;;;;;;;12.86;6.82;;;;;;;3.71;82.96;99729.78;2021939;80;20796;-75
2021/03/26 04:19:17;;;;;;;11.36;6.85;;;;;;;3.70;82.98;99730.63;2022001;80;20357;-75
2021/03/26 04:22:23;;;;;;;9.75;6.22;;;;;;;3.72;82.83;99732.41;2022686;80;20384;-75
2021/03/26 04:25:36;;;;;;;9.99;6.43;;;;;;;3.73;82.96;99736.69;2024405;80;20323;-76
2021/03/26 04:28:45;;;;;;;8.48;6.16;;;;;;;3.68;83.05;99734.84;2021938;80;20442;-76
2021/03/26 04:32:15;;;;;;;8.77;6.56;;;;;;;3.62;83.03;99733.84;2021608;80;20789;-76
2021/03/26 04:35:18;;;;;;;8.04;6.53;;;;;;;3.63;83.03;99730.44;2021607;80;20957;-75
2021/03/26 04:38:53;;;;;;;8.80;6.44;;;;;;;3.68;82.75;99737.41;2021526;80;20312;-75
2021/03/26 04:42:05;;;;;;;9.56;6.72;;;;;;;3.72;82.83;99739.22;2018862;80;20423;-75
2021/03/26 04:45:31;;;;;;;10.24;6.53;;;;;;;3.74;83.08;99732.44;2021334;80;20346;-75
2021/03/26 04:49:08;;;;;;;8.36;6.18;;;;;;;3.73;83.63;99725.56;2022049;80;20381;-75
2021/03/26 04:52:24;;;;;;;8.15;6.16;;;;;;;3.74;83.92;99728.16;2021731;80;20345;-75
2021/03/26 04:55:34;;;;;;;9.57;6.19;;;;;;;3.78;83.74;99724.88;2021233;80;20493;-75
2021/03/26 04:58:39;;;;;;;9.26;6.31;;;;;;;3.78;83.80;99726.59;2022004;80;20333;-75
2021/03/26 05:01:44;;;;;;;10.68;6.68;;;;;;;3.77;83.79;99722.25;2021344;80;20958;-75
2021/03/26 05:04:49;;;;;;;10.26;6.11;;;;;;;3.81;83.59;99729.22;2021853;80;20311;-76
2021/03/26 05:07:58;;;;;;;10.26;7.00;;;;;;;3.79;83.19;99725.75;2021851;80;20699;-75
2021/03/26 05:11:01;;;;;;;7.26;6.20;;;;;;;3.73;83.23;99721.28;2022448;80;20319;-75
2021/03/26 05:14:14;;;;;;;8.20;5.81;;;;;;;3.68;82.69;99715.16;2021844;80;20240;-75
2021/03/26 05:17:26;;;;;;;9.89;6.26;;;;;;;3.59;82.46;99714.88;2021341;80;20316;-74
2021/03/26 05:20:58;;;;;;;11.19;6.79;;;;;;;3.53;82.32;99718.16;2022477;80;20449;-75
2021/03/26 05:24:06;;;;;;;9.16;6.65;;;;;;;3.46;82.43;99718.81;2021103;80;20312;-76
2021/03/26 05:27:11;;;;;;;10.64;7.41;;;;;;;3.42;82.43;99717.00;2022067;80;20326;-75
2021/03/26 05:30:41;;;;;;;11.30;6.70;;;;;;;3.44;82.36;99711.91;2021794;80;20355;-76
2021/03/26 05:33:49;;;;;;;9.71;6.69;;;;;;;3.43;82.02;99725.56;2021709;80;20443;-75
2021/03/26 05:37:22;;;;;;;9.65;6.94;;;;;;;3.39;81.76;99721.16;2021961;80;20324;-75
2021/03/26 05:40:42;;;;;;;9.44;7.01;;;;;;;3.36;81.81;99724.50;2021998;80;20341;-75
2021/03/26 05:43:50;;;;;;;13.60;6.86;;;;;;;3.38;81.83;99725.41;2021461;80;20337;-76
2021/03/26 05:47:29;;;;;;;12.13;8.04;;;;;;;3.37;82.16;99722.81;2021337;80;20322;-75
2021/03/26 05:50:48;;;;;;;10.29;6.96;;;;;;;3.34;82.46;99719.31;2019661;80;20354;-75
2021/03/26 05:53:55;;;;;;;11.29;7.84;;;;;;;3.39;82.55;99726.28;2019830;80;20200;-76
2021/03/26 05:57:27;;;;;;;13.59;7.65;;;;;;;3.43;83.08;99731.56;2019721;80;20212;-75
2021/03/26 06:00:41;;;;;;;10.91;7.45;;;;;;;3.50;82.86;99724.91;2019847;80;20316;-75
2021/03/26 06:04:20;;;;;;;11.31;7.45;;;;;;;3.55;82.81;99724.22;2019187;80;20380;-75
2021/03/26 06:07:28;;;;;;;9.74;6.75;;;;;;;3.60;82.96;99725.25;2020071;80;20363;-75
2021/03/26 06:11:00;;;;;;;12.31;7.65;;;;;;;3.70;82.75;99728.03;2019365;80;20320;-75
2021/03/26 06:14:32;;;;;;;9.86;7.10;;;;;;;3.75;82.62;99735.03;2019495;80;20342;-75
2021/03/26 06:17:52;;;;;;;10.01;7.03;;;;;;;3.86;82.34;99733.66;2020711;80;20736;-75
2021/03/26 06:21:17;;;;;;;9.04;6.93;;;;;;;3.97;82.27;99738.22;2019579;80;20446;-75
2021/03/26 06:24:48;;;;;;;10.45;7.11;;;;;;;4.08;82.11;99735.09;2019597;80;21339;-75
2021/03/26 06:27:49;;;;;;;11.44;7.15;;;;;;;4.22;82.53;99743.19;2019540;80;20319;-73
2021/03/26 06:31:21;;;;;;;11.19;7.09;;;;;;;4.57;82.71;99736.38;2019654;80;20334;-72
2021/03/26 06:34:52;;;;;;;7.82;6.11;;;;;;;5.16;81.37;99734.34;2019327;80;20357;-73
2021/03/26 06:38:39;;;;;;;11.25;6.75;;;;;;;5.79;79.32;99733.16;2019719;80;20347;-73
2021/03/26 06:42:08;;;;;;;11.81;7.09;;;;;;;6.46;77.06;99730.13;2019922;80;20551;-73
2021/03/26 06:45:28;;;;;;;9.69;6.60;;;;;;;6.95;75.25;99734.41;2016381;80;20335;-72
2021/03/26 06:48:59;;;;;;;9.16;6.84;;;;;;;7.39;73.63;99734.19;2019878;80;20766;-72
2021/03/26 06:52:17;;;;;;;11.09;7.21;;;;;;;7.82;72.09;99727.00;2019118;80;20508;-73
2021/03/26 06:55:51;;;;;;;9.50;7.52;;;;;;;8.15;70.93;99721.34;2018406;80;20373;-78
2021/03/26 06:59:30;;;;;;;11.77;7.49;;;;;;;8.41;70.00;99724.19;2019613;80;20198;-73
2021/03/26 07:02:57;;;;;;;9.82;7.84;;;;;;;8.65;69.48;99721.84;2018996;80;21210;-74
2021/03/26 07:06:27;;;;;;;12.56;7.71;;;;;;;8.75;69.22;99725.38;2018553;80;20179;-76
2021/03/26 07:10:08;;;;;;;9.93;7.60;;;;;;;8.74;69.28;99724.50;2019902;80;20215;-77
2021/03/26 07:13:29;;;;;;;13.16;7.91;;;;;;;8.92;69.47;99726.38;2019532;80;20240;-77
2021/03/26 07:16:53;;;;;;;10.65;7.24;;;;;;;9.11;68.53;99722.19;2022211;77;20264;-76
2021/03/26 07:20:07;;;;;;;9.59;7.71;;;;;;;9.38;67.86;99730.16;2024819;80;20247;-79
2021/03/26 07:23:34;;;;;;;10.57;7.50;;;;;;;9.64;66.88;99721.63;2025672;79;20226;-78
2021/03/26 07:27:00;;;;;;;11.54;8.11;;;;;;;9.92;66.16;99720.03;2026667;80;20158;-78
2021/03/26 07:30:29;;;;;;;10.65;8.04;;;;;;;10.24;65.52;99721.03;2023542;79;20206;-76
2021/03/26 07:33:35;;;;;;;9.39;7.62;;;;;;;10.53;64.79;99726.25;2020694;80;20162;-74
2021/03/26 07:36:54;;;;;;;10.85;7.34;;;;;;;10.62;63.21;99715.03;2024370;79;21030;-75
2021/03/26 07:40:17;;;;;;;11.15;7.38;;;;;;;10.83;63.41;99720.22;2024554;80;20232;-76
2021/03/26 07:43:46;;;;;;;10.79;8.01;;;;;;;11.11;62.37;99718.44;2023389;80;20948;-76
2021/03/26 07:47:26;;;;;;;13.21;8.05;;;;;;;11.37;61.61;99709.75;2023330;77;20248;-78
2021/03/26 07:50:50;;;;;;;10.86;7.43;;;;;;;11.74;60.51;99708.75;2040870;79;20195;-83
2021/03/26 07:57:40;;;;;;;9.84;6.61;;;;;;;12.19;59.28;99713.75;2012891;80;20237;-77
2021/03/26 08:01:09;;;;;;;7.86;6.64;;;;;;;12.42;58.84;99711.91;2014339;77;20921;-77
2021/03/26 08:04:23;;;;;;;8.24;6.10;;;;;;;12.75;58.54;99702.06;2014372;80;20598;-79
2021/03/26 08:07:34;;;;;;;9.11;6.21;;;;;;;13.00;57.80;99706.22;2018761;80;20179;-77
2021/03/26 08:10:43;;;;;;;7.01;5.63;;;;;;;13.40;56.34;99709.31;2014294;80;20209;-76
2021/03/26 08:13:59;;;;;;;7.51;5.13;;;;;;;13.62;55.57;99709.94;2014502;80;20295;-76
2021/03/26 08:17:25;;;;;;;8.39;5.06;;;;;;;13.83;53.74;99701.88;2013620;77;22799;-76
2021/03/26 08:20:30;;;;;;;7.06;4.89;;;;;;;14.17;53.05;99711.84;2015034;80;20193;-76
2021/03/26 08:24:06;;;;;;;7.10;5.06;;;;;;;14.42;52.36;99710.63;2014402;80;20203;-76
2021/03/26 08:27:23;;;;;;;6.55;4.85;;;;;;;14.72;51.58;99717.16;2010851;80;20171;-76
2021/03/26 08:30:45;;;;;;;6.54;4.55;;;;;;;14.88;49.79;99716.88;2014700;77;21928;-76
2021/03/26 08:33:59;;;;;;;6.88;4.07;;;;;;;14.66;49.49;99706.78;2014494;80;20167;-76
2021/03/26 08:37:29;;;;;;;4.85;3.84;;;;;;;14.93;50.34;99707.25;2015322;80;20241;-75
2021/03/26 08:40:52;;;;;;;5.53;3.91;;;;;;;15.09;49.59;99695.63;2014681;80;20203;-76
2021/03/26 08:43:56;;;;;;;4.38;3.20;;;;;;;15.32;48.88;99698.69;2014581;80;20172;-76
2021/03/26 08:46:58;;;;;;;4.44;2.83;;;;;;;15.59;47.93;99694.69;2014458;80;20201;-76
2021/03/26 08:50:56;;;;;;;4.96;3.29;;;;;;;15.72;47.00;99697.94;2014785;80;20289;-76
2021/03/26 08:54:12;;;;;;;3.60;2.64;;;;;;;15.82;46.51;99701.22;1999129;80;20208;-75
2021/03/26 08:57:52;;;;;;;3.86;2.74;;;;;;;16.01;45.68;99695.56;2014732;80;20715;-75
2021/03/26 09:01:31;;;;;;;3.17;2.39;;;;;;;16.11;45.76;99703.22;2014877;77;20284;-76
2021/03/26 09:05:10;;;;;;;3.83;1.91;;;;;;;16.16;45.94;99698.75;2015703;80;20290;-76
2021/03/26 09:08:31;;;;;;;;;;;;;;;16.33;45.02;99691.34;2016246;80;20224;-75
2021/03/26 09:11:44;;;;;;;3.06;1.85;;;;;;;16.51;44.27;99697.91;2015968;80;21128;-76
2021/03/26 09:14:49;;;;;;;2.20;1.45;;;;;;;16.56;43.68;99698.69;2015819;80;20207;-75
2021/03/26 09:18:03;;;;;;;2.65;1.24;;;;;;;16.57;43.72;99697.78;2009777;77;21817;-75
2021/03/26 09:21:29;;;;;;;1.49;0.90;;;;;;;16.47;42.22;99701.53;2010573;80;20299;-70
2021/03/26 09:25:08;;;;;;;2.28;1.30;;;;;;;16.59;42.73;99698.63;2010188;80;20168;-75
2021/03/26 09:28:09;;;;;;;;;;;;;;;16.58;42.61;99697.75;2011251;80;20188;-75
2021/03/26 09:31:31;;;;;;;2.38;1.06;;;;;;;16.26;42.85;99690.63;2011604;80;20084;-75
2021/03/26 09:34:44;;;;;;;1.23;1.08;;;;;;;16.34;43.64;99695.72;2014998;80;20208;-75
2021/03/26 09:37:54;;;;;;;;;;;;;;;16.54;42.57;99684.78;2016591;80;20322;-78
2021/03/26 09:41:03;;;;;;;3.04;0.80;;;;;;;16.73;42.11;99690.47;2015502;80;20093;-75
2021/03/26 09:44:25;;;;;;;2.58;1.00;;;;;;;16.59;41.16;99691.63;2015022;80;20200;-76
2021/03/26 09:47:32;;;;;;;2.09;0.88;;;;;;;16.30;42.07;99681.81;2011124;77;21540;-75
2021/03/26 09:50:41;;;;;;;3.14;0.90;;;;;;;16.02;42.49;99678.97;2010375;80;20330;-75
2021/03/26 09:53:43;;;;;;;2.92;1.35;;;;;;;15.81;43.03;99671.56;2009814;80;20226;-75
2021/03/26 09:56:59;;;;;;;1.76;1.30;;;;;;;15.26;43.59;99674.38;2009836;80;20192;-75
2021/03/26 10:00:28;;;;;;;3.11;1.20;;;;;;;14.85;44.96;99672.50;2010258;80;20164;-74
2021/03/26 10:03:39;;;;;;;2.04;1.20;;;;;;;14.67;46.66;99666.69;2014517;80;20179;-75
2021/03/26 10:06:59;;;;;;;2.67;1.40;;;;;;;14.50;45.91;99666.09;2015759;80;20228;-75
2021/03/26 10:13:30;;;;;;;1.59;1.38;;;;;;;14.38;47.29;99666.28;2014618;80;20777;-79
2021/03/26 10:16:53;;;;;;;1.90;1.30;;;;;;;14.31;47.06;99654.19;2015155;77;20188;-78
2021/03/26 10:19:57;;;;;;;3.25;1.29;;;;;;;14.31;47.12;99654.19;2015173;80;21571;-77
2021/03/26 10:23:21;;;;;;;3.41;1.08;;;;;;;14.50;47.59;99642.59;2014876;80;20191;-76
2021/03/26 10:26:48;;;;;;;1.04;0.88;;;;;;;14.87;45.44;99639.34;2015536;80;20314;-75
2021/03/26 10:29:52;;;;;;;1.19;1.06;;;;;;;15.04;45.32;99632.06;2015514;80;20205;-75
2021/03/26 10:33:03;;;;;;;2.21;1.13;;;;;;;15.60;44.78;99636.19;2013507;78;20430;-75
2021/03/26 10:36:19;;;;;;;2.36;1.40;;;;;;;15.87;43.53;99632.16;2014894;80;20614;-75
2021/03/26 10:39:30;;;;;;;3.26;1.90;;;;;;;16.03;43.70;99630.06;2015534;80;20771;-75
2021/03/26 10:42:46;;;;;;;5.74;1.63;;;;;;;16.20;43.42;99625.28;2015678;80;20267;-75
2021/03/26 10:46:05;;;;;;;1.65;1.55;;;;;;;15.97;43.10;99624.94;2013977;77;20544;-75
2021/03/26 10:49:36;;;;;;;1.17;1.08;;;;;;;15.68;43.24;99620.34;2015502;80;20239;-75
2021/03/26 10:53:13;;;;;;;1.90;1.02;;;;;;;15.49;43.52;99609.38;2016425;80;20205;-75
2021/03/26 10:56:37;;;;;;;4.51;1.50;;;;;;;15.38;43.83;99606.97;2011890;80;20798;-74
2021/03/26 11:00:04;;;;;;;2.66;1.10;;;;;;;15.50;44.83;99603.25;2016617;80;20504;-75
2021/03/26 11:03:22;;;;;;;2.16;1.66;;;;;;;16.01;44.77;99597.78;2015421;78;27295;-75
2021/03/26 11:06:41;;;;;;;3.00;1.47;;;;;;;16.55;43.29;99586.88;2016850;80;20270;-75
2021/03/26 11:09:47;;;;;;;3.34;1.39;;;;;;;17.06;43.18;99582.03;2016452;80;20332;-76
2021/03/26 11:12:54;;;;;;;1.70;1.39;;;;;;;17.35;41.58;99573.31;2016477;80;20695;-75
2021/03/26 11:16:12;;;;;;;2.14;1.50;;;;;;;17.26;41.17;99576.22;2015016;80;21866;-76
2021/03/26 11:19:35;;;;;;;1.76;1.24;;;;;;;17.17;41.53;99577.34;2016415;80;20617;-75
2021/03/26 11:22:44;;;;;;;1.76;0.96;;;;;;;16.95;42.45;99554.38;2016941;80;20852;-75
2021/03/26 11:25:48;;;;;;;3.47;1.17;;;;;;;16.59;42.24;99572.78;2016402;80;20887;-75
2021/03/26 11:28:53;;;;;;;2.97;1.00;;;;;;;16.27;41.37;99563.97;2017554;80;20180;-75
2021/03/26 11:32:08;;;;;;;1.04;0.74;;;;;;;16.14;41.96;99559.06;2016482;77;20201;-75
2021/03/26 11:35:18;;;;;;;4.22;1.09;;;;;;;16.62;42.98;99546.47;2016330;80;20687;-74
2021/03/26 11:38:28;;;;;;;5.56;2.05;;;;;;;16.61;41.18;99550.84;2017704;80;20242;-74
2021/03/26 11:41:44;;;;;;;2.10;1.19;;;;;;;16.59;40.99;99546.56;2016505;80;20203;-74
2021/03/26 11:44:55;;;;;;;1.25;0.82;;;;;;;16.37;39.85;99548.03;2016437;80;20168;-74
2021/03/26 11:48:03;;;;;;;1.75;1.08;;;;;;;16.03;41.17;99543.63;2015646;77;20315;-75
2021/03/26 11:51:17;;;;;;;3.42;1.30;;;;;;;15.92;41.70;99536.00;2015872;80;20749;-74
2021/03/26 11:54:31;;;;;;;1.36;1.20;;;;;;;15.86;41.55;99537.91;2015955;80;20197;-74
2021/03/26 11:57:51;;;;;;;1.83;0.98;;;;;;;16.39;41.54;99533.13;2015967;80;20197;-75
2021/03/26 12:01:03;;;;;;;1.24;1.10;;;;;;;16.57;41.38;99530.88;2014734;78;25463;-75
2021/03/26 12:04:15;;;;;;;1.50;1.19;;;;;;;16.50;41.47;99528.44;2015406;80;21151;-75
2021/03/26 12:07:36;;;;;;;2.35;1.67;;;;;;;16.22;42.29;99516.06;2015478;80;20177;-75
2021/03/26 12:10:56;;;;;;;2.64;1.36;;;;;;;16.04;42.59;99507.81;2014691;80;20202;-75
2021/03/26 12:14:17;;;;;;;2.14;1.11;;;;;;;15.88;42.53;99502.94;2015184;80;21004;-75
2021/03/26 12:17:21;;;;;;;2.26;1.30;;;;;;;15.81;42.82;99496.13;2015186;77;20199;-75
2021/03/26 12:20:28;;;;;;;1.58;1.20;;;;;;;15.80;43.27;99488.28;2014979;80;20203;-75
2021/03/26 12:23:48;;;;;;;2.31;1.08;;;;;;;15.82;43.62;99483.91;2015209;80;20315;-78
2021/03/26 12:27:17;;;;;;;2.61;1.20;;;;;;;15.93;43.46;99474.00;2018558;80;20213;-75
2021/03/26 12:30:26;;;;;;;3.55;1.17;;;;;;;16.05;42.98;99465.84;2015238;80;20341;-75
2021/03/26 12:33:55;;;;;;;1.96;1.27;;;;;;;16.35;43.02;99474.69;2014602;80;20680;-76
2021/03/26 12:37:06;;;;;;;2.21;1.10;;;;;;;16.61;42.09;99468.72;2016399;80;20220;-76
2021/03/26 12:40:21;;;;;;;1.89;0.90;;;;;;;17.04;40.20;99465.75;2017110;80;20214;-69
2021/03/26 12:43:38;;;;;;;2.28;0.99;;;;;;;17.09;40.34;99460.41;2016553;80;20217;-69
2021/03/26 12:46:59;;;;;;;2.56;1.48;;;;;;;16.99;39.16;99456.31;2015174;78;37563;-70
2021/03/26 12:50:07;;;;;;;2.67;1.00;;;;;;;16.70;40.27;99455.41;2016190;80;20294;-69
2021/03/26 12:53:21;;;;;;;3.54;1.51;;;;;;;16.62;40.61;99445.09;2017161;80;20544;-70
2021/03/26 12:56:23;;;;;;;1.98;1.09;;;;;;;16.47;39.96;99437.66;2016343;80;21134;-69
2021/03/26 12:59:35;;;;;;;1.75;1.00;;;;;;;16.96;41.43;99440.66;2016459;80;20168;-70
2021/03/26 13:03:04;;;;;;;3.09;1.59;;;;;;;17.53;39.57;99428.38;2015334;80;20272;-69
2021/03/26 13:06:18;;;;;;;;;;;;;;;17.55;38.21;99433.56;2016920;80;20940;-69
2021/03/26 13:10:02;;;;;;;1.86;0.89;;;;;;;17.41;38.53;99441.88;2017122;80;20821;-70
2021/03/26 13:13:31;;;;;;;2.86;0.90;;;;;;;17.17;38.99;99426.91;2016269;80;20215;-69
2021/03/26 13:16:46;;;;;;;3.10;1.24;;;;;;;17.01;39.83;99426.50;2017475;77;22618;-77
2021/03/26 13:19:49;;;;;;;1.63;1.05;;;;;;;16.87;40.18;99421.66;2020474;80;20200;-78
2021/03/26 13:22:56;;;;;;;3.24;1.20;;;;;;;16.69;40.17;99416.94;2019128;80;20197;-78
2021/03/26 13:26:03;;;;;;;2.25;1.24;;;;;;;16.63;40.52;99411.88;2023678;80;20705;-80
2021/03/26 13:29:27;;;;;;;2.44;1.30;;;;;;;16.58;40.57;99408.53;2019407;80;20277;-79
2021/03/26 13:32:43;;;;;;;3.92;1.40;;;;;;;16.60;40.71;99396.22;2015503;77;21622;-69
2021/03/26 13:35:48;;;;;;;1.55;1.09;;;;;;;16.63;41.50;99398.75;2014880;80;20673;-69
2021/03/26 13:38:56;;;;;;;3.56;1.40;;;;;;;16.57;42.04;99389.31;2015518;80;20360;-68
2021/03/26 13:42:14;;;;;;;1.69;1.29;;;;;;;16.55;42.29;99387.66;2015351;80;20184;-69
2021/03/26 13:45:17;;;;;;;2.69;1.31;;;;;;;16.44;41.90;99379.22;2014240;77;20211;-70
2021/03/26 13:48:22;;;;;;;1.48;1.33;;;;;;;16.38;42.04;99372.41;2015314;80;20225;-68
2021/03/26 13:51:24;;;;;;;2.06;1.23;;;;;;;16.44;42.08;99372.22;2015059;80;20184;-69
2021/03/26 13:54:44;;;;;;;2.80;1.10;;;;;;;16.44;41.50;99372.22;2016001;79;20167;-68
2021/03/26 13:57:55;;;;;;;1.66;1.14;;;;;;;16.46;41.33;99365.16;2026633;79;20292;-70
2021/03/26 14:00:56;;;;;;;3.51;1.54;;;;;;;16.43;41.13;99365.25;2023276;79;28586;-68
2021/03/26 14:04:14;;;;;;;2.88;1.20;;;;;;;16.18;40.63;99364.22;2021034;80;20178;-68
2021/03/26 14:07:18;;;;;;;1.77;1.08;;;;;;;16.06;41.36;99351.47;2020423;80;20195;-68
2021/03/26 14:10:51;;;;;;;2.45;1.41;;;;;;;16.04;42.05;99354.13;2021183;80;20202;-68
2021/03/26 14:13:56;;;;;;;2.59;1.27;;;;;;;16.02;41.94;99346.31;2020068;80;20175;-69
2021/03/26 14:17:03;;;;;;;2.65;1.17;;;;;;;15.91;42.40;99342.25;2019507;77;20216;-69
2021/03/26 14:20:05;;;;;;;1.19;1.04;;;;;;;15.84;43.28;99333.72;2025890;79;20666;-69
2021/03/26 14:23:29;;;;;;;1.61;1.19;;;;;;;15.94;44.30;99339.53;2025687;79;21341;-69
2021/03/26 14:26:40;;;;;;;3.35;1.11;;;;;;;15.98;43.44;99331.59;2025821;79;20189;-69
2021/03/26 14:29:53;;;;;;;1.76;0.90;;;;;;;16.00;43.02;99327.16;2025622;79;20762;-69
2021/03/26 14:33:00;;;;;;;2.14;0.98;;;;;;;16.05;42.77;99327.03;2024788;77;20472;-69
2021/03/26 14:36:26;;;;;;;1.32;1.20;;;;;;;16.16;42.63;99324.13;2025945;79;20192;-69
2021/03/26 14:39:32;;;;;;;1.19;1.00;;;;;;;16.18;41.93;99324.94;2025720;79;20737;-69
2021/03/26 14:42:42;;;;;;;4.50;1.10;;;;;;;16.24;42.02;99317.75;2025582;79;20347;-69
2021/03/26 14:45:46;;;;;;;3.44;2.03;;;;;;;16.46;41.69;99314.50;2021900;78;31517;-69
2021/03/26 14:48:52;;;;;;;1.84;1.19;;;;;;;16.92;41.54;99308.75;2020802;80;20289;-70
2021/03/26 14:52:01;;;;;;;3.45;1.51;;;;;;;16.90;40.19;99314.06;2019926;80;20174;-69
2021/03/26 14:55:12;;;;;;;1.59;1.08;;;;;;;16.92;40.92;99309.63;2018676;80;20183;-69
2021/03/26 14:58:29;;;;;;;5.46;4.96;;;;;;;17.27;41.20;99296.28;2015920;80;20285;-69
2021/03/26 15:01:35;;;;;;;16.74;14.09;;;;;;;17.53;40.92;99293.63;2015562;77;20244;-69
2021/03/26 15:04:41;;;;;;;10.16;9.16;;;;;;;17.81;40.57;99301.44;2016358;80;20215;-69
2021/03/26 15:07:46;;;;;;;11.74;10.56;;;;;;;18.01;39.67;99298.97;2015984;80;20172;-70
2021/03/26 15:11:05;;;;;;;7.11;6.40;;;;;;;17.63;39.49;99288.91;2019138;80;20317;-69
2021/03/26 15:14:27;;;;;;;3.80;2.63;;;;;;;17.50;39.76;99272.72;2016660;80;20205;-69
2021/03/26 15:17:55;;;;;;;2.76;1.51;;;;;;;17.49;39.49;99274.50;2015551;77;20215;-69
2021/03/26 15:21:13;;;;;;;5.87;2.88;;;;;;;17.62;40.62;99276.69;2011462;80;20302;-69
2021/03/26 15:24:21;;;;;;;1.98;1.80;;;;;;;17.56;40.05;99276.91;2015712;80;20223;-69
2021/03/26 15:28:04;;;;;;;2.66;1.00;;;;;;;17.38;40.16;99273.13;2015821;80;21001;-69